Time;durP1;ratioP1;P1;durP2;ratioP2;P2;SDS_P1;SDS_P2;PMS_P1;PMS_P2;Temp;Humidity;BMP_temperature;BMP_pressure;BME280_temperature;BME280_humidity;BME280_pressure;Samples;Min_cycle;Max_cycle;Signal;HPM_P1;HPM_P2
2024/04/05 00:02:56;;;;;;;14.55;3.25;;;13.10;95.60;;;;;;10265117;28;21852;-62
2024/04/05 00:07:58;;;;;;;11.20;2.90;;;13.20;95.70;;;;;;10268184;28;20295;-64
2024/04/05 00:13:02;;;;;;;15.53;3.70;;;13.20;96.10;;;;;;10263073;28;20461;-64
2024/04/05 00:18:05;;;;;;;14.13;4.07;;;13.30;95.70;;;;;;10263968;28;20443;-63
2024/04/05 00:23:08;;;;;;;9.73;2.97;;;13.50;96.10;;;;;;10264864;28;20236;-64
2024/04/05 00:28:12;;;;;;;13.93;3.97;;;13.50;96.30;;;;;;10262837;28;20698;-65
2024/04/05 00:33:14;;;;;;;12.82;3.13;;;13.50;95.90;;;;;;10262223;28;20201;-65
2024/04/05 00:38:17;;;;;;;11.98;2.90;;;13.50;96.00;;;;;;10263984;28;20240;-62
2024/04/05 00:43:22;;;;;;;11.02;3.10;;;13.50;95.90;;;;;;10263088;28;20236;-64
2024/04/05 00:48:24;;;;;;;13.32;3.42;;;13.50;96.10;;;;;;10262151;28;20287;-65
2024/04/05 00:53:31;;;;;;;10.73;3.38;;;13.50;96.30;;;;;;10262818;28;20875;-64
2024/04/05 00:58:35;;;;;;;10.73;3.35;;;13.50;96.40;;;;;;10262710;28;20237;-65
2024/04/05 01:03:38;;;;;;;12.55;3.20;;;13.50;96.40;;;;;;10261737;28;20286;-65
2024/04/05 01:08:40;;;;;;;8.98;2.80;;;13.50;96.30;;;;;;10261711;28;20228;-65
2024/04/05 01:13:47;;;;;;;10.63;3.03;;;13.40;96.40;;;;;;10262027;28;20204;-64
2024/04/05 01:18:53;;;;;;;11.43;2.90;;;13.40;96.60;;;;;;10259916;28;20229;-62
2024/04/05 01:23:58;;;;;;;12.88;3.72;;;13.40;96.50;;;;;;10264493;28;20213;-63
2024/04/05 01:29:00;;;;;;;13.02;3.10;;;13.40;96.50;;;;;;10268881;28;20640;-64
2024/04/05 01:34:03;;;;;;;9.82;3.05;;;13.40;96.70;;;;;;10268703;28;20286;-63
2024/04/05 01:39:07;;;;;;;12.07;3.17;;;13.40;96.80;;;;;;10267921;28;20367;-64
2024/04/05 01:44:09;;;;;;;12.38;3.40;;;13.30;96.60;;;;;;10269981;28;20272;-64
2024/04/05 01:49:12;;;;;;;8.13;3.00;;;13.30;96.50;;;;;;10268978;28;21667;-63
2024/04/05 01:54:16;;;;;;;12.35;3.30;;;13.30;96.40;;;;;;10269655;28;20227;-64
2024/04/05 01:59:18;;;;;;;7.80;2.92;;;13.30;96.60;;;;;;10269052;28;20287;-67
2024/04/05 02:04:21;;;;;;;10.90;2.75;;;13.30;96.70;;;;;;10269916;28;20322;-65
2024/04/05 02:09:25;;;;;;;9.63;2.30;;;13.30;96.70;;;;;;10268756;28;20267;-64
2024/04/05 02:14:28;;;;;;;10.43;2.95;;;13.30;96.80;;;;;;10268524;28;20205;-64
2024/04/05 02:19:30;;;;;;;8.27;2.60;;;13.30;96.90;;;;;;10267581;28;20788;-64
2024/04/05 02:24:34;;;;;;;11.15;2.70;;;13.30;96.80;;;;;;10268032;28;21522;-64
2024/04/05 02:29:37;;;;;;;11.70;2.75;;;13.40;96.90;;;;;;10266874;28;20225;-62
2024/04/05 02:34:40;;;;;;;10.30;2.85;;;13.30;96.90;;;;;;10266249;28;20279;-64
2024/04/05 02:39:43;;;;;;;9.93;2.40;;;13.40;96.90;;;;;;10267800;28;20229;-65
2024/04/05 02:44:46;;;;;;;10.10;3.13;;;13.40;97.10;;;;;;10268101;28;21620;-64
2024/04/05 02:49:48;;;;;;;9.75;3.30;;;13.40;97.10;;;;;;10267816;28;20265;-66
2024/04/05 02:54:52;;;;;;;11.00;3.08;;;13.40;96.90;;;;;;10267989;28;20208;-65
2024/04/05 02:59:55;;;;;;;14.18;3.33;;;13.40;97.00;;;;;;10265828;28;21560;-65
2024/04/05 03:04:57;;;;;;;11.38;2.97;;;13.50;97.20;;;;;;10265794;28;20676;-65
2024/04/05 03:10:01;;;;;;;8.77;3.10;;;13.50;97.20;;;;;;10267510;28;20229;-66
2024/04/05 03:15:04;;;;;;;8.25;2.90;;;13.50;97.30;;;;;;10268877;28;20212;-64
2024/04/05 03:20:08;;;;;;;13.75;3.40;;;13.50;97.40;;;;;;10261940;28;20310;-63
2024/04/05 03:25:12;;;;;;;13.73;3.28;;;13.50;97.90;;;;;;10307991;23;20314;-63
2024/04/05 03:30:15;;;;;;;10.52;3.00;;;13.60;97.70;;;;;;10300691;28;20212;-62
2024/04/05 03:35:19;;;;;;;9.63;3.78;;;13.60;97.60;;;;;;10269199;28;21833;-63
2024/04/05 03:40:23;;;;;;;8.20;2.85;;;13.60;97.80;;;;;;10260120;28;20221;-61
2024/04/05 03:45:26;;;;;;;8.68;2.55;;;13.60;98.00;;;;;;10257136;28;20224;-63
2024/04/05 03:50:29;;;;;;;10.30;2.70;;;13.70;98.00;;;;;;10257187;28;20750;-63
2024/04/05 03:55:33;;;;;;;11.75;3.17;;;13.70;98.10;;;;;;10260349;28;20233;-63
2024/04/05 04:00:35;;;;;;;13.50;3.30;;;13.70;97.80;;;;;;10264943;28;20237;-62
2024/04/05 04:05:38;;;;;;;9.52;3.08;;;13.70;98.10;;;;;;10268214;28;20259;-64
2024/04/05 04:10:43;;;;;;;9.15;2.67;;;13.70;97.90;;;;;;10267815;28;20201;-63
2024/04/05 04:15:45;;;;;;;9.55;2.92;;;13.70;98.10;;;;;;10268450;28;20642;-63
2024/04/05 04:20:48;;;;;;;11.18;2.58;;;13.80;98.00;;;;;;10268071;28;20233;-63
2024/04/05 04:25:52;;;;;;;15.55;3.10;;;13.80;98.00;;;;;;10265904;28;20245;-63
2024/04/05 04:30:55;;;;;;;9.30;2.80;;;13.80;98.20;;;;;;10265806;28;20722;-63
2024/04/05 04:35:57;;;;;;;11.25;3.20;;;13.80;98.30;;;;;;10264562;28;20232;-63
2024/04/05 04:41:05;;;;;;;8.88;2.85;;;13.80;98.40;;;;;;10268622;28;20282;-63
2024/04/05 04:46:10;;;;;;;9.45;2.97;;;13.80;98.30;;;;;;10255144;28;20275;-63
2024/04/05 04:51:13;;;;;;;6.38;2.85;;;13.90;98.40;;;;;;10261391;28;21460;-63
2024/04/05 04:56:20;;;;;;;11.15;3.30;;;13.90;98.30;;;;;;10272155;28;20223;-61
2024/04/05 05:01:23;;;;;;;12.60;3.33;;;13.90;98.30;;;;;;10274511;28;20228;-63
2024/04/05 05:06:25;;;;;;;13.73;3.45;;;13.90;98.40;;;;;;10276640;28;21100;-61
2024/04/05 05:11:29;;;;;;;12.45;3.70;;;13.90;98.50;;;;;;10277871;28;21835;-62
2024/04/05 05:16:32;;;;;;;9.50;3.42;;;13.90;98.70;;;;;;10283813;28;20266;-63
2024/04/05 05:21:35;;;;;;;14.40;3.85;;;13.90;98.90;;;;;;10275676;28;20875;-62
2024/04/05 05:26:39;;;;;;;11.13;3.25;;;14.10;99.90;;;;;;10275998;28;20656;-63
2024/04/05 05:31:41;;;;;;;12.65;4.85;;;14.10;99.50;;;;;;10276714;28;20244;-67
2024/04/05 05:36:44;;;;;;;13.48;3.47;;;14.10;99.50;;;;;;10277527;28;20221;-67
2024/04/05 05:41:48;;;;;;;10.48;3.63;;;14.00;99.20;;;;;;10275136;28;20613;-66
2024/04/05 05:46:50;;;;;;;12.48;4.03;;;14.00;99.30;;;;;;10274642;28;20201;-67
2024/04/05 05:51:53;;;;;;;9.75;3.60;;;13.90;99.20;;;;;;10275061;28;20256;-67
2024/04/05 05:56:57;;;;;;;18.80;7.32;;;13.90;99.20;;;;;;10275122;28;20202;-68
2024/04/05 06:02:00;;;;;;;12.10;4.80;;;13.90;99.40;;;;;;10274682;28;20306;-67
2024/04/05 06:07:02;;;;;;;12.27;4.28;;;13.90;99.30;;;;;;10274562;28;20267;-68
2024/04/05 06:12:08;;;;;;;9.88;3.60;;;13.90;99.80;;;;;;10274247;28;20232;-67
2024/04/05 06:17:11;;;;;;;11.07;4.00;;;13.90;99.50;;;;;;10273035;28;20213;-67
2024/04/05 06:22:13;;;;;;;11.23;4.00;;;14.00;99.90;;;;;;10271749;28;20761;-69
2024/04/05 06:27:17;;;;;;;10.75;3.90;;;14.00;99.70;;;;;;10271198;28;20213;-69
2024/04/05 06:32:20;;;;;;;8.35;3.25;;;14.10;99.80;;;;;;10273682;28;21529;-68
2024/04/05 06:37:25;;;;;;;11.98;4.30;;;14.10;99.80;;;;;;10271435;28;20244;-68
2024/04/05 06:42:29;;;;;;;9.35;3.65;;;14.20;99.80;;;;;;10272175;28;20311;-68
2024/04/05 06:47:32;;;;;;;13.07;4.20;;;14.30;99.90;;;;;;10270644;28;20216;-69
2024/04/05 06:52:34;;;;;;;8.55;4.10;;;14.30;99.70;;;;;;10271435;28;20281;-68
2024/04/05 06:57:39;;;;;;;11.30;3.38;;;14.40;99.70;;;;;;10271738;28;20216;-67
2024/04/05 07:02:42;;;;;;;9.02;3.50;;;14.50;99.60;;;;;;10269964;28;20232;-67
2024/04/05 07:07:45;;;;;;;7.53;3.28;;;14.60;99.80;;;;;;10268599;28;21571;-67
2024/04/05 07:12:51;;;;;;;8.38;3.05;;;14.60;99.70;;;;;;10270671;28;20314;-67
2024/04/05 07:17:56;;;;;;;9.20;2.92;;;14.70;99.80;;;;;;10268781;28;20220;-67
2024/04/05 07:22:58;;;;;;;7.55;2.78;;;14.70;99.70;;;;;;10267644;28;20237;-67
2024/04/05 07:28:02;;;;;;;10.15;3.30;;;14.80;99.80;;;;;;10270130;28;20209;-69
2024/04/05 07:33:05;;;;;;;6.80;2.75;;;14.90;99.90;;;;;;10271060;28;20429;-69
2024/04/05 07:38:08;;;;;;;7.53;2.72;;;15.00;99.80;;;;;;10269937;28;20628;-70
2024/04/05 07:43:12;;;;;;;5.32;2.30;;;15.00;99.80;;;;;;10270148;28;20254;-69
2024/04/05 07:48:15;;;;;;;7.80;2.90;;;15.10;99.80;;;;;;10266937;28;20239;-69
2024/04/05 07:53:18;;;;;;;7.05;2.08;;;15.10;99.70;;;;;;10267411;28;20835;-68
2024/04/05 07:58:22;;;;;;;7.72;2.80;;;15.20;99.70;;;;;;10265362;28;20209;-70
2024/04/05 08:03:24;;;;;;;6.20;2.58;;;15.20;99.80;;;;;;10262858;28;20252;-69
2024/04/05 08:08:27;;;;;;;8.63;2.60;;;15.30;99.60;;;;;;10264561;28;20966;-68
2024/04/05 08:13:31;;;;;;;7.97;2.35;;;15.30;99.60;;;;;;10266480;28;20251;-68
2024/04/05 08:18:33;;;;;;;7.68;2.50;;;15.40;99.50;;;;;;10264552;28;20259;-70
2024/04/05 08:23:36;;;;;;;7.32;2.30;;;15.50;99.40;;;;;;10265274;28;20267;-70
2024/04/05 08:28:40;;;;;;;7.95;2.22;;;15.50;99.30;;;;;;10265310;28;20208;-69
2024/04/05 08:33:43;;;;;;;6.40;2.88;;;15.50;99.30;;;;;;10262743;28;20843;-70
2024/04/05 08:38:47;;;;;;;7.65;2.05;;;15.50;99.40;;;;;;10264948;28;20654;-70
2024/04/05 08:43:55;;;;;;;5.90;2.15;;;15.50;99.40;;;;;;10263595;28;20229;-70
2024/04/05 08:49:00;;;;;;;7.47;2.47;;;15.50;99.30;;;;;;10264828;28;20236;-70
2024/04/05 08:54:03;;;;;;;6.35;2.10;;;15.50;99.30;;;;;;10264061;28;20278;-70
2024/04/05 08:59:07;;;;;;;9.30;2.45;;;15.50;99.30;;;;;;10262448;28;20931;-68
2024/04/05 09:04:10;;;;;;;8.30;2.60;;;15.60;99.60;;;;;;10264059;28;20842;-69
2024/04/05 09:09:24;;;;;;;6.47;2.55;;;15.60;99.20;;;;;;10265944;28;21481;-69
2024/04/05 09:14:29;;;;;;;6.22;2.42;;;15.60;99.30;;;;;;10264797;28;20494;-69
2024/04/05 09:19:32;;;;;;;5.43;2.40;;;15.60;99.30;;;;;;10264005;28;20294;-70
2024/04/05 09:24:34;;;;;;;6.45;2.20;;;15.70;99.30;;;;;;10263654;28;20240;-70
2024/04/05 09:29:38;;;;;;;5.22;2.53;;;15.70;99.20;;;;;;10264326;28;20974;-71
2024/04/05 09:34:42;;;;;;;5.35;1.83;;;15.80;98.90;;;;;;10265683;28;20309;-70
2024/04/05 09:39:46;;;;;;;5.32;2.17;;;15.90;98.80;;;;;;10263035;28;21116;-69
2024/04/05 09:44:55;;;;;;;7.20;2.00;;;16.00;98.70;;;;;;10265234;28;20221;-69
2024/04/05 09:49:58;;;;;;;5.88;1.73;;;16.10;98.60;;;;;;10271193;28;20205;-69
2024/04/05 09:55:01;;;;;;;3.00;1.33;;;16.20;98.40;;;;;;10269652;28;20232;-69
2024/04/05 10:00:14;;;;;;;4.60;1.30;;;16.30;98.20;;;;;;10270107;28;20885;-69
2024/04/05 10:05:27;;;;;;;4.70;1.52;;;16.40;97.90;;;;;;10255404;28;20255;-70
2024/04/05 10:10:32;;;;;;;5.25;1.95;;;16.40;97.90;;;;;;10268822;28;20205;-69
2024/04/05 10:15:36;;;;;;;6.22;1.60;;;16.40;98.20;;;;;;10270363;28;20229;-69
2024/04/05 10:20:39;;;;;;;4.38;1.60;;;16.30;98.30;;;;;;10270140;28;20232;-69
2024/04/05 10:25:42;;;;;;;4.60;1.73;;;16.30;98.30;;;;;;10263452;28;20249;-70
2024/04/05 10:30:46;;;;;;;4.65;1.63;;;16.30;98.10;;;;;;10269760;28;20278;-68
2024/04/05 10:35:49;;;;;;;4.13;1.50;;;16.30;98.00;;;;;;10268381;28;20676;-69
2024/04/05 10:40:58;;;;;;;3.85;1.70;;;16.30;97.80;;;;;;10268892;28;20233;-69
2024/04/05 10:46:02;;;;;;;4.72;1.83;;;16.40;97.90;;;;;;10270191;28;20233;-69
2024/04/05 10:51:05;;;;;;;4.88;1.60;;;16.50;97.60;;;;;;10269410;28;20205;-68
2024/04/05 10:56:11;;;;;;;5.68;1.52;;;16.60;97.70;;;;;;10268465;28;20241;-68
2024/04/05 11:01:15;;;;;;;5.13;1.50;;;16.60;97.30;;;;;;10267634;28;20251;-69
2024/04/05 11:06:17;;;;;;;5.03;1.52;;;16.70;97.20;;;;;;10265355;28;20217;-69
2024/04/05 11:11:20;;;;;;;4.63;1.90;;;16.80;97.20;;;;;;10266802;28;20231;-68
2024/04/05 11:16:24;;;;;;;5.78;1.77;;;16.80;97.30;;;;;;10265615;28;20306;-68
2024/04/05 11:21:27;;;;;;;4.22;1.65;;;16.70;97.20;;;;;;10264335;28;20267;-68
2024/04/05 11:26:31;;;;;;;4.85;2.20;;;16.80;97.30;;;;;;10266143;28;20217;-68
2024/04/05 11:31:35;;;;;;;4.13;1.80;;;16.80;97.50;;;;;;10268063;28;20256;-68
2024/04/05 11:36:38;;;;;;;5.63;1.63;;;16.90;97.30;;;;;;10265924;28;20213;-65
2024/04/05 11:41:40;;;;;;;3.38;1.90;;;17.10;97.30;;;;;;10277007;28;21108;-65
2024/04/05 11:46:44;;;;;;;3.35;1.50;;;17.20;97.20;;;;;;10272351;28;20376;-68
2024/04/05 11:51:47;;;;;;;4.60;1.92;;;17.20;96.50;;;;;;10275984;28;20225;-65
2024/04/05 11:56:49;;;;;;;5.90;1.73;;;17.20;96.80;;;;;;10278645;28;20205;-63
2024/04/05 12:01:54;;;;;;;3.80;1.60;;;17.20;97.10;;;;;;10270447;28;20301;-64
2024/04/05 12:06:57;;;;;;;4.80;1.77;;;17.20;96.90;;;;;;10270903;28;21594;-66
2024/04/05 12:11:59;;;;;;;4.55;1.58;;;17.30;97.00;;;;;;10278779;28;20226;-63
2024/04/05 12:17:04;;;;;;;2.40;1.52;;;17.40;96.70;;;;;;10273953;28;20197;-62
2024/04/05 12:22:07;;;;;;;4.97;1.83;;;17.60;96.30;;;;;;10275609;28;20236;-63
2024/04/05 12:27:10;;;;;;;5.57;1.83;;;17.80;96.20;;;;;;10270551;28;21749;-65
2024/04/05 12:32:14;;;;;;;5.10;1.83;;;17.90;95.70;;;;;;10272474;28;20233;-64
2024/04/05 12:37:21;;;;;;;3.50;1.83;;;17.90;95.60;;;;;;10270010;28;20278;-64
2024/04/05 12:42:24;;;;;;;5.35;1.98;;;18.00;96.00;;;;;;10276173;28;20285;-65
2024/04/05 12:47:28;;;;;;;3.08;1.55;;;18.20;96.00;;;;;;10266065;28;20212;-64
2024/04/05 12:52:30;;;;;;;2.80;1.27;;;18.20;95.70;;;;;;10270850;28;20232;-62
2024/04/05 12:57:33;;;;;;;3.10;1.55;;;18.20;95.40;;;;;;10267282;28;20291;-67
2024/04/05 13:02:37;;;;;;;3.58;1.33;;;18.10;95.30;;;;;;10268370;28;20306;-65
2024/04/05 13:07:39;;;;;;;3.85;1.65;;;18.00;95.00;;;;;;10273123;28;20217;-67
2024/04/05 13:12:42;;;;;;;4.30;1.65;;;17.90;95.10;;;;;;10271311;28;20853;-63
2024/04/05 13:17:46;;;;;;;8.90;5.80;;;17.70;95.30;;;;;;10270589;28;20266;-67
2024/04/05 13:22:49;;;;;;;4.50;2.03;;;17.70;95.30;;;;;;10273087;28;20229;-63
2024/04/05 13:27:52;;;;;;;3.38;1.48;;;17.60;95.00;;;;;;10274824;28;20271;-66
2024/04/05 13:32:56;;;;;;;3.78;1.60;;;17.60;94.90;;;;;;10275409;28;20225;-65
2024/04/05 13:38:00;;;;;;;2.13;0.90;;;17.60;94.80;;;;;;10273548;28;20362;-64
2024/04/05 13:43:03;;;;;;;1.73;0.90;;;17.50;94.90;;;;;;10274092;28;21705;-65
2024/04/05 13:48:08;;;;;;;2.08;1.10;;;17.40;95.20;;;;;;10274381;28;20964;-64
2024/04/05 13:53:10;;;;;;;1.65;1.10;;;17.40;95.20;;;;;;10273604;28;21232;-63
2024/04/05 13:58:13;;;;;;;2.33;1.15;;;17.30;95.10;;;;;;10274703;28;21446;-64
2024/04/05 14:03:17;;;;;;;1.77;0.77;;;17.30;95.20;;;;;;10272253;28;20303;-64
2024/04/05 14:08:20;;;;;;;2.60;1.20;;;17.30;94.90;;;;;;10272707;28;20623;-63
2024/04/05 14:13:24;;;;;;;2.15;0.93;;;17.10;96.10;;;;;;10273032;28;20290;-63
2024/04/05 14:18:28;;;;;;;3.85;1.52;;;16.90;97.20;;;;;;10273214;28;20212;-64
2024/04/05 14:23:31;;;;;;;2.70;1.42;;;16.70;97.50;;;;;;10270772;28;20240;-64
2024/04/05 14:28:34;;;;;;;1.77;1.15;;;16.70;97.90;;;;;;10270673;28;20842;-63
2024/04/05 14:33:39;;;;;;;2.83;1.25;;;16.90;98.30;;;;;;10269551;28;20220;-65
2024/04/05 14:38:42;;;;;;;3.78;2.10;;;17.20;98.10;;;;;;10270742;28;20213;-63
2024/04/05 14:43:46;;;;;;;2.40;1.38;;;17.30;97.90;;;;;;10270685;28;20235;-63
2024/04/05 14:48:50;;;;;;;2.63;1.48;;;17.40;97.90;;;;;;10269927;28;20217;-64
2024/04/05 14:53:55;;;;;;;1.33;0.80;;;17.40;97.80;;;;;;10272028;28;20295;-64
2024/04/05 14:58:58;;;;;;;1.98;0.90;;;17.50;97.50;;;;;;10270766;28;20204;-64
2024/04/05 15:04:02;;;;;;;2.60;1.20;;;17.60;97.00;;;;;;10270613;28;20300;-63
2024/04/05 15:09:05;;;;;;;2.60;1.35;;;17.60;96.70;;;;;;10268803;28;20236;-64
2024/04/05 15:14:07;;;;;;;1.88;1.30;;;17.90;96.50;;;;;;10268831;28;20314;-66
2024/04/05 15:19:11;;;;;;;1.75;1.38;;;18.00;96.40;;;;;;10271181;28;21728;-63
2024/04/05 15:24:14;;;;;;;2.60;1.50;;;18.50;95.90;;;;;;10270165;28;21531;-65
2024/04/05 15:29:16;;;;;;;1.92;0.93;;;18.90;95.60;;;;;;10268504;28;20642;-63
2024/04/05 15:34:20;;;;;;;2.28;1.08;;;19.20;94.90;;;;;;10268840;28;20314;-63
2024/04/05 15:39:23;;;;;;;3.75;1.50;;;19.40;95.20;;;;;;10267044;28;20213;-63
2024/04/05 15:44:26;;;;;;;1.73;1.17;;;19.70;94.90;;;;;;10268191;28;20241;-63
2024/04/05 15:49:31;;;;;;;2.67;1.17;;;20.20;94.90;;;;;;10268994;28;21450;-63
2024/04/05 15:54:37;;;;;;;3.15;1.30;;;20.20;93.70;;;;;;10268767;28;20311;-65
2024/04/05 15:59:42;;;;;;;1.73;1.20;;;19.90;94.30;;;;;;10272593;28;20216;-62
2024/04/05 16:04:46;;;;;;;2.78;1.40;;;19.60;93.80;;;;;;10270336;28;20240;-64
2024/04/05 16:09:49;;;;;;;2.40;1.10;;;19.40;94.10;;;;;;10270461;28;20212;-65
2024/04/05 16:14:51;;;;;;;2.85;1.30;;;19.20;94.00;;;;;;10269460;28;20250;-63
2024/04/05 16:19:56;;;;;;;4.10;1.52;;;19.10;94.10;;;;;;10268908;28;20213;-64
2024/04/05 16:24:58;;;;;;;2.88;1.40;;;19.10;94.30;;;;;;10269505;28;20282;-63
2024/04/05 16:30:03;;;;;;;4.35;2.90;;;19.00;94.00;;;;;;10269526;28;21863;-65
2024/04/05 16:35:08;;;;;;;4.57;2.05;;;18.90;94.30;;;;;;10267804;28;20388;-65
2024/04/05 16:40:12;;;;;;;4.13;3.05;;;18.80;94.50;;;;;;10269535;28;20213;-63
2024/04/05 16:45:16;;;;;;;2.25;1.02;;;18.80;94.40;;;;;;10270387;28;20240;-62
2024/04/05 16:50:20;;;;;;;3.50;2.20;;;18.80;94.80;;;;;;10270363;28;20271;-62
2024/04/05 16:55:23;;;;;;;3.13;2.70;;;18.70;94.60;;;;;;10266962;28;20224;-63
2024/04/05 17:00:26;;;;;;;2.35;1.80;;;18.60;94.80;;;;;;10266285;28;20208;-64
2024/04/05 17:05:30;;;;;;;2.58;1.67;;;18.50;94.80;;;;;;10270911;28;20301;-62
2024/04/05 17:10:36;;;;;;;3.67;1.73;;;18.50;94.80;;;;;;10272181;28;21352;-62
2024/04/05 17:15:39;;;;;;;3.42;1.70;;;18.40;94.20;;;;;;10276103;28;21418;-64
2024/04/05 17:20:43;;;;;;;2.85;1.77;;;18.30;94.20;;;;;;10277966;28;20239;-63
2024/04/05 17:25:46;;;;;;;3.53;2.78;;;18.10;94.10;;;;;;10271968;28;20232;-63
2024/04/05 17:30:49;;;;;;;3.88;2.10;;;18.10;94.40;;;;;;10275906;28;20236;-63
2024/04/05 17:35:53;;;;;;;3.20;1.42;;;18.00;94.30;;;;;;10275516;28;20295;-63
2024/04/05 17:40:55;;;;;;;2.33;1.60;;;18.00;94.20;;;;;;10277448;28;20217;-63
2024/04/05 17:45:58;;;;;;;2.92;1.58;;;17.90;94.30;;;;;;10274112;28;20221;-62
2024/04/05 17:51:02;;;;;;;3.03;1.30;;;17.80;94.20;;;;;;10276292;28;20279;-63
2024/04/05 17:56:06;;;;;;;3.20;1.30;;;17.70;94.30;;;;;;10270630;28;20298;-63
2024/04/05 18:01:08;;;;;;;1.40;1.20;;;17.60;94.40;;;;;;10277806;28;20286;-61
2024/04/05 18:06:12;;;;;;;3.42;1.67;;;17.50;94.30;;;;;;10273794;28;20259;-63
2024/04/05 18:11:15;;;;;;;6.50;1.90;;;17.50;94.60;;;;;;10279148;28;20213;-63
2024/04/05 18:16:17;;;;;;;5.32;1.80;;;17.40;94.60;;;;;;10276408;28;20225;-62
2024/04/05 18:21:21;;;;;;;2.90;1.88;;;17.40;94.70;;;;;;10290916;28;20958;-63
2024/04/05 18:26:24;;;;;;;8.20;5.13;;;17.30;94.70;;;;;;10298258;28;20229;-65
2024/04/05 18:31:27;;;;;;;16.17;8.60;;;17.20;94.70;;;;;;10291597;28;20217;-64
2024/04/05 18:36:31;;;;;;;10.18;4.63;;;17.20;94.80;;;;;;10295736;28;20204;-65
2024/04/05 18:41:34;;;;;;;9.23;4.82;;;17.10;94.70;;;;;;10294582;28;20201;-64
2024/04/05 18:46:40;;;;;;;3.83;1.95;;;17.10;94.80;;;;;;10298266;28;20252;-64
2024/04/05 18:51:46;;;;;;;6.00;5.40;;;17.10;94.80;;;;;;10295535;28;20232;-65
2024/04/05 18:56:48;;;;;;;8.35;7.55;;;17.00;94.70;;;;;;10292725;28;20205;-63
2024/04/05 19:01:51;;;;;;;8.80;7.90;;;17.00;94.80;;;;;;10294042;28;20474;-64
2024/04/05 19:06:55;;;;;;;5.95;5.40;;;17.10;94.70;;;;;;10309465;28;20213;-64
2024/04/05 19:11:58;;;;;;;7.25;6.60;;;17.10;94.70;;;;;;10312153;28;20256;-64
2024/04/05 19:17:03;;;;;;;10.90;7.60;;;17.00;94.70;;;;;;10303817;28;20279;-62
2024/04/05 19:22:11;;;;;;;5.68;5.18;;;17.00;94.80;;;;;;10287187;28;21460;-63
2024/04/05 19:27:18;;;;;;;4.25;3.85;;;16.90;94.80;;;;;;10274370;28;20217;-62
2024/04/05 19:32:21;;;;;;;4.45;2.13;;;16.80;94.90;;;;;;10276585;28;20232;-65
2024/04/05 19:37:25;;;;;;;2.88;1.88;;;16.80;94.80;;;;;;10281566;28;20735;-62
2024/04/05 19:42:28;;;;;;;3.67;2.28;;;16.70;95.30;;;;;;10282047;28;20232;-63
2024/04/05 19:47:31;;;;;;;4.15;2.25;;;16.70;94.90;;;;;;10287353;28;20201;-62
2024/04/05 19:52:36;;;;;;;2.97;1.90;;;16.70;94.90;;;;;;10283069;28;21421;-63
2024/04/05 19:57:38;;;;;;;3.55;2.00;;;16.60;94.90;;;;;;10275043;28;20217;-63
2024/04/05 20:02:41;;;;;;;4.65;2.40;;;16.60;94.90;;;;;;10280537;28;20232;-64
2024/04/05 20:07:45;;;;;;;4.07;2.28;;;16.60;95.00;;;;;;10276464;28;20234;-62
2024/04/05 20:12:47;;;;;;;3.97;2.00;;;16.50;94.90;;;;;;10289154;28;20286;-63
2024/04/05 20:17:52;;;;;;;4.82;2.20;;;16.50;95.00;;;;;;10280306;28;20212;-64
2024/04/05 20:22:56;;;;;;;3.60;1.90;;;16.40;95.00;;;;;;10271921;28;20658;-62
2024/04/05 20:27:58;;;;;;;3.35;2.20;;;16.40;95.00;;;;;;10270922;28;20213;-62
2024/04/05 20:33:02;;;;;;;4.82;1.83;;;16.40;95.00;;;;;;10271249;28;20217;-64
2024/04/05 20:38:06;;;;;;;13.82;6.93;;;16.40;95.00;;;;;;10275029;28;20208;-65
2024/04/05 20:43:09;;;;;;;26.83;12.95;;;16.40;95.10;;;;;;10277901;28;20228;-63
2024/04/05 20:48:11;;;;;;;35.15;17.08;;;16.40;95.00;;;;;;10271704;28;20842;-63
2024/04/05 20:53:15;;;;;;;20.30;11.38;;;16.40;95.00;;;;;;10274212;28;20367;-63
2024/04/05 20:58:18;;;;;;;14.20;6.72;;;16.40;95.10;;;;;;10271533;28;20201;-62
2024/04/05 21:03:21;;;;;;;5.20;2.53;;;16.40;95.10;;;;;;10274226;28;20373;-62
2024/04/05 21:08:25;;;;;;;20.20;8.27;;;16.40;95.10;;;;;;10274024;28;20213;-63
2024/04/05 21:13:28;;;;;;;44.78;18.30;;;16.40;95.10;;;;;;10267277;28;20233;-67
2024/04/05 21:18:31;;;;;;;33.50;13.43;;;16.40;95.20;;;;;;10265518;28;20205;-67
2024/04/05 21:23:35;;;;;;;21.83;9.32;;;16.50;95.10;;;;;;10266648;28;20282;-67
2024/04/05 21:28:38;;;;;;;30.23;13.85;;;16.40;95.20;;;;;;10267142;28;20209;-67
2024/04/05 21:33:40;;;;;;;20.98;8.93;;;16.40;95.20;;;;;;10266605;28;20868;-66
2024/04/05 21:38:44;;;;;;;36.30;16.38;;;16.40;95.20;;;;;;10265509;28;22088;-66
2024/04/05 21:43:47;;;;;;;10.98;6.95;;;16.40;95.10;;;;;;10272655;28;20225;-66
2024/04/05 21:48:49;;;;;;;7.90;3.97;;;16.40;95.10;;;;;;10272140;28;20205;-66
2024/04/05 21:53:53;;;;;;;4.60;3.30;;;16.40;95.20;;;;;;10271691;28;21561;-67
2024/04/05 21:58:56;;;;;;;3.53;2.70;;;16.30;95.20;;;;;;10270582;28;20536;-64
2024/04/05 22:03:59;;;;;;;4.97;2.13;;;16.50;95.40;;;;;;10271693;28;20229;-65
2024/04/05 22:09:06;;;;;;;4.47;1.98;;;16.50;95.20;;;;;;10270999;28;20282;-64
2024/04/05 22:14:08;;;;;;;2.92;1.60;;;16.50;95.20;;;;;;10271425;28;20224;-64
2024/04/05 22:19:11;;;;;;;2.20;1.60;;;16.40;95.20;;;;;;10271506;28;21431;-64
2024/04/05 22:24:15;;;;;;;3.85;1.90;;;16.40;95.20;;;;;;10270865;28;20326;-64
2024/04/05 22:29:18;;;;;;;5.25;1.73;;;16.40;95.30;;;;;;10271658;28;20213;-64
2024/04/05 22:34:20;;;;;;;3.20;1.73;;;16.40;95.30;;;;;;10271048;28;20308;-65
2024/04/05 22:39:24;;;;;;;4.35;1.60;;;16.30;95.30;;;;;;10269765;28;20209;-65
2024/04/05 22:44:27;;;;;;;3.50;1.77;;;16.30;95.60;;;;;;10269677;28;21320;-64
2024/04/05 22:49:30;;;;;;;2.38;1.25;;;16.30;95.30;;;;;;10267805;28;20212;-64
2024/04/05 22:54:34;;;;;;;3.35;1.30;;;16.30;95.50;;;;;;10268237;28;20252;-64
2024/04/05 22:59:37;;;;;;;4.82;1.40;;;16.30;95.60;;;;;;10269381;28;20217;-66
2024/04/05 23:04:39;;;;;;;3.05;1.45;;;16.30;95.70;;;;;;10266484;28;20237;-63
2024/04/05 23:09:44;;;;;;;2.08;1.17;;;16.30;95.70;;;;;;10268095;28;20209;-64
2024/04/05 23:14:46;;;;;;;2.72;1.30;;;16.30;95.70;;;;;;10268065;28;20228;-64
2024/04/05 23:19:49;;;;;;;3.63;1.77;;;16.30;95.70;;;;;;10267935;28;20366;-65
2024/04/05 23:24:53;;;;;;;3.00;1.30;;;16.30;95.60;;;;;;10268101;28;20240;-65
2024/04/05 23:29:55;;;;;;;2.55;1.30;;;16.30;95.60;;;;;;10266988;28;20255;-65
2024/04/05 23:34:58;;;;;;;2.45;1.60;;;16.30;95.80;;;;;;10266992;28;20221;-63
2024/04/05 23:40:05;;;;;;;2.75;1.13;;;16.30;95.60;;;;;;10266004;28;20216;-63
2024/04/05 23:45:08;;;;;;;2.88;1.05;;;16.30;95.60;;;;;;10266008;28;20301;-63
2024/04/05 23:50:10;;;;;;;1.95;1.10;;;16.30;95.60;;;;;;10266041;28;20213;-63
2024/04/05 23:55:14;;;;;;;1.52;1.05;;;16.30;95.70;;;;;;10266965;28;21627;-64
